This is the latest recevied weather packets stored in our database for station/object HA9OZD-17. If no packets are shown the sender has not sent any weather packets the latest 10 day(s).
| Time | Temp. | Humidity | Pressure | Rain* | Wind** | Luminosity | Snow |
|---|---|---|---|---|---|---|---|
| 1778114790 | 15° C | 52% | 889 hPa | - | - | - | - |
| 1778111189 | 15.56° C | 49% | 889 hPa | - | - | - | - |
| 1778107588 | 16.11° C | 46% | 890 hPa | - | - | - | - |
| 1778103986 | 17.22° C | 43% | 890 hPa | - | - | - | - |
| 1778100385 | 17.22° C | 42% | 890 hPa | - | - | - | - |
| 1778096784 | 17.78° C | 40% | 890 hPa | - | - | - | - |
| 1778093183 | 18.33° C | 38% | 889 hPa | - | - | - | - |
| 1778089581 | 20.56° C | 32% | 889 hPa | - | - | - | - |
| 1778085980 | 23.33° C | 28% | 889 hPa | - | - | - | - |
| 1778082378 | 22.78° C | 28% | 890 hPa | - | - | - | - |
| 1778078777 | 25° C | 25% | 890 hPa | - | - | - | - |
| 1778075176 | 25.56° C | 24% | 890 hPa | - | - | - | - |
| 1778071575 | 26.67° C | 23% | 890 hPa | - | - | - | - |
| 1778067974 | 21.67° C | 31% | 890 hPa | - | - | - | - |
| 1778064373 | 19.44° C | 36% | 890 hPa | - | - | - | - |
| 1778060771 | 18.33° C | 38% | 890 hPa | - | - | - | - |
| 1778057170 | 17.78° C | 39% | 890 hPa | - | - | - | - |
| 1778053569 | 16.67° C | 40% | 890 hPa | - | - | - | - |
| 1778049968 | 15.56° C | 41% | 889 hPa | - | - | - | - |
| 1778046367 | 15° C | 44% | 889 hPa | - | - | - | - |
| 1778042765 | 14.44° C | 46% | 888 hPa | - | - | - | - |
| 1778039164 | 13.89° C | 46% | 888 hPa | - | - | - | - |
| 1778035568 | 13.89° C | 45% | 888 hPa | - | - | - | - |
| 1778035563 | 13.89° C | 45% | 888 hPa | - | - | - | - |
| 1778034621 | 14.44° C | 44% | 888 hPa | - | - | - | - |
* Rain since midnight (hover to see other rain measurements)
** Current wind speed in m/s (hover to see current wind gust speed)